createdAt,value
2024-02-13T00:00:28.681Z,66.50
2024-02-13T00:02:55.771Z,66.60
2024-02-13T00:05:22.806Z,66.50
2024-02-13T00:07:50.221Z,66.50
2024-02-13T00:10:17.662Z,66.60
2024-02-13T00:12:44.503Z,66.70
2024-02-13T00:15:19.721Z,66.60
2024-02-13T00:17:47.067Z,66.60
2024-02-13T00:20:15.402Z,66.60
2024-02-13T00:22:42.564Z,66.60
2024-02-13T00:25:10.525Z,66.60
2024-02-13T00:27:37.849Z,66.50
2024-02-13T00:30:05.853Z,66.40
2024-02-13T00:32:38.746Z,66.40
2024-02-13T00:35:10.156Z,66.40
2024-02-13T00:37:40.301Z,66.40
2024-02-13T00:40:11.312Z,66.40
2024-02-13T00:42:38.992Z,66.50
2024-02-13T00:45:08.487Z,66.50
2024-02-13T00:47:35.768Z,66.50
2024-02-13T00:50:03.534Z,66.50
2024-02-13T00:52:30.408Z,66.60
2024-02-13T00:54:58.692Z,66.70
2024-02-13T00:57:25.890Z,66.70
2024-02-13T00:59:53.534Z,66.60
2024-02-13T01:02:21.168Z,66.60
2024-02-13T01:04:49.189Z,66.70
2024-02-13T01:07:18.531Z,66.60
2024-02-13T01:09:45.720Z,66.60
2024-02-13T01:12:12.542Z,66.50
2024-02-13T01:14:39.963Z,66.70
2024-02-13T01:17:07.035Z,66.60
2024-02-13T01:19:34.127Z,66.50
2024-02-13T01:22:02.538Z,66.60
2024-02-13T01:24:30.351Z,66.60
2024-02-13T01:26:59.028Z,66.70
2024-02-13T01:29:26.275Z,66.90
2024-02-13T01:31:54.702Z,66.80
2024-02-13T01:34:21.582Z,66.70
2024-02-13T01:36:48.512Z,66.90
2024-02-13T01:39:15.385Z,67.00
2024-02-13T01:41:42.392Z,66.80
2024-02-13T01:44:09.940Z,66.90
2024-02-13T01:46:37.346Z,66.90
2024-02-13T01:49:05.185Z,66.90
2024-02-13T01:51:36.110Z,66.80
2024-02-13T01:54:05.824Z,66.90
2024-02-13T01:56:34.806Z,67.00
2024-02-13T01:59:04.895Z,67.00
2024-02-13T02:01:34.276Z,66.90
2024-02-13T02:04:05.031Z,67.00
2024-02-13T02:06:32.107Z,66.90
2024-02-13T02:08:59.410Z,67.00
2024-02-13T02:11:26.771Z,66.90
2024-02-13T02:13:54.033Z,66.80
2024-02-13T02:16:21.016Z,66.80
2024-02-13T02:18:47.978Z,66.70
2024-02-13T02:21:15.706Z,66.70
2024-02-13T02:23:42.659Z,66.70
2024-02-13T02:26:09.670Z,66.60
2024-02-13T02:28:36.585Z,66.60
2024-02-13T02:31:03.731Z,66.70
2024-02-13T02:33:30.948Z,66.70
2024-02-13T02:35:57.991Z,66.70
2024-02-13T02:38:24.945Z,66.60
2024-02-13T02:40:51.810Z,66.60
2024-02-13T02:43:18.645Z,66.50
2024-02-13T02:45:46.665Z,66.70
2024-02-13T02:48:15.745Z,66.80
2024-02-13T02:50:43.370Z,66.80
2024-02-13T02:53:10.368Z,66.80
2024-02-13T02:55:37.251Z,66.80
2024-02-13T02:58:04.228Z,67.50
2024-02-13T03:00:31.303Z,66.90
2024-02-13T03:02:58.449Z,66.90
2024-02-13T03:05:28.236Z,66.90
2024-02-13T03:07:55.877Z,67.10
2024-02-13T03:10:22.719Z,67.10
2024-02-13T03:12:49.571Z,67.00
2024-02-13T03:15:16.474Z,67.20
2024-02-13T03:17:45.088Z,67.20
2024-02-13T03:20:14.022Z,67.10
2024-02-13T03:22:41.124Z,67.10
2024-02-13T03:25:08.602Z,67.20
2024-02-13T03:27:35.400Z,67.20
2024-02-13T03:30:03.402Z,67.30
2024-02-13T03:32:30.603Z,67.20
2024-02-13T03:34:57.716Z,67.10
2024-02-13T03:37:24.590Z,67.20
2024-02-13T03:39:51.442Z,67.30
2024-02-13T03:42:18.411Z,67.30
2024-02-13T03:44:46.902Z,67.20
2024-02-13T03:47:14.100Z,67.00
2024-02-13T03:49:42.186Z,67.10
2024-02-13T03:52:10.819Z,67.10
2024-02-13T03:54:38.260Z,67.00
2024-02-13T03:57:05.930Z,66.90
2024-02-13T03:59:32.880Z,67.00
2024-02-13T04:02:00.090Z,67.00
2024-02-13T04:04:26.992Z,66.90
2024-02-13T04:06:54.041Z,67.00
2024-02-13T04:09:21.146Z,67.10
2024-02-13T04:11:48.151Z,67.00
2024-02-13T04:14:15.278Z,67.10
2024-02-13T04:16:42.667Z,67.10
2024-02-13T04:19:10.046Z,67.10
2024-02-13T04:21:39.025Z,67.00
2024-02-13T04:24:08.202Z,67.00
2024-02-13T04:26:43.077Z,67.00
2024-02-13T04:29:10.459Z,67.00
2024-02-13T04:31:40.380Z,66.90
2024-02-13T04:34:08.144Z,67.10
2024-02-13T04:36:38.811Z,66.90
2024-02-13T04:39:08.227Z,67.00
2024-02-13T04:41:35.231Z,66.90
2024-02-13T04:44:03.643Z,66.90
2024-02-13T04:46:30.665Z,66.90
2024-02-13T04:48:58.592Z,67.00
2024-02-13T04:51:25.684Z,66.90
2024-02-13T04:53:52.949Z,66.90
2024-02-13T04:56:20.151Z,66.90
2024-02-13T04:58:47.896Z,66.90
2024-02-13T05:01:15.782Z,66.80
2024-02-13T05:04:03.287Z,67.60
2024-02-13T05:06:49.396Z,66.90
2024-02-13T05:09:16.623Z,67.00
2024-02-13T05:11:43.759Z,67.00
2024-02-13T05:14:10.744Z,67.20
2024-02-13T05:16:42.578Z,67.20
2024-02-13T05:19:09.877Z,67.10
2024-02-13T05:21:37.277Z,67.10
2024-02-13T05:24:07.394Z,67.00
2024-02-13T05:26:35.941Z,67.10
2024-02-13T05:29:04.728Z,67.00
2024-02-13T05:31:31.879Z,67.00
2024-02-13T05:33:58.893Z,66.90
2024-02-13T05:36:27.279Z,67.00
2024-02-13T05:38:54.554Z,67.10
2024-02-13T05:41:21.492Z,67.20
2024-02-13T05:43:48.778Z,67.30
2024-02-13T05:46:15.716Z,67.30
2024-02-13T05:48:43.694Z,67.40
2024-02-13T05:51:12.691Z,67.40
2024-02-13T05:53:43.452Z,67.50
2024-02-13T05:56:13.285Z,67.50
2024-02-13T05:58:40.734Z,67.40
2024-02-13T06:01:09.100Z,67.30
2024-02-13T06:03:36.142Z,67.50
2024-02-13T06:06:03.823Z,67.60
2024-02-13T06:08:30.907Z,67.80
2024-02-13T06:11:00.094Z,67.90
2024-02-13T06:13:28.084Z,67.80
2024-02-13T06:15:57.959Z,68.00
2024-02-13T06:18:25.238Z,67.80
2024-02-13T06:20:52.340Z,67.90
2024-02-13T06:23:19.425Z,68.00
2024-02-13T06:25:46.676Z,68.00
2024-02-13T06:28:14.269Z,68.70
2024-02-13T06:30:43.782Z,67.90
2024-02-13T06:33:11.866Z,67.80
2024-02-13T06:35:40.657Z,67.70
2024-02-13T06:38:07.630Z,67.70
2024-02-13T06:40:35.338Z,67.70
2024-02-13T06:43:04.562Z,67.70
2024-02-13T06:45:31.903Z,67.80
2024-02-13T06:47:58.935Z,67.70
2024-02-13T06:50:25.930Z,67.60
2024-02-13T06:52:53.719Z,67.70
2024-02-13T06:55:21.207Z,67.80
2024-02-13T06:57:48.448Z,67.90
2024-02-13T07:00:15.843Z,67.90
2024-02-13T07:02:42.971Z,67.70
2024-02-13T07:05:12.136Z,67.90
2024-02-13T07:07:46.574Z,67.80
2024-02-13T07:10:18.319Z,67.70
2024-02-13T07:12:45.720Z,67.50
2024-02-13T07:15:12.844Z,67.50
2024-02-13T07:20:12.991Z,67.50
2024-02-13T07:22:40.573Z,67.60
2024-02-13T07:25:10.117Z,67.60
2024-02-13T07:27:43.396Z,68.10
2024-02-13T07:30:12.745Z,67.20
2024-02-13T07:32:41.048Z,67.00
2024-02-13T07:35:08.638Z,66.90
2024-02-13T07:37:35.654Z,66.90
2024-02-13T07:40:03.999Z,67.00
2024-02-13T07:42:31.050Z,67.00
2024-02-13T07:44:59.417Z,66.60
2024-02-13T07:47:28.283Z,66.20
2024-02-13T07:49:56.448Z,65.90
2024-02-13T07:52:23.626Z,65.10
2024-02-13T07:54:52.180Z,62.80
2024-02-13T07:57:19.815Z,61.50
2024-02-13T07:59:48.256Z,60.40
2024-02-13T08:02:15.756Z,59.50
2024-02-13T08:04:43.549Z,58.70
2024-02-13T08:07:10.891Z,57.30
2024-02-13T08:09:38.851Z,56.70
2024-02-13T08:12:08.207Z,58.60
2024-02-13T08:14:36.612Z,60.40
2024-02-13T08:17:09.376Z,62.00
2024-02-13T08:19:37.747Z,63.00
2024-02-13T08:22:04.806Z,63.70
2024-02-13T08:24:32.211Z,64.40
2024-02-13T08:27:02.562Z,64.80
2024-02-13T08:29:31.439Z,65.00
2024-02-13T08:31:58.897Z,65.40
2024-02-13T08:34:26.641Z,65.30
2024-02-13T08:36:55.545Z,65.20
2024-02-13T08:39:23.419Z,65.30
2024-02-13T08:41:50.716Z,65.30
2024-02-13T08:44:20.087Z,65.10
2024-02-13T08:46:47.279Z,65.00
2024-02-13T08:49:14.917Z,65.00
2024-02-13T08:51:42.259Z,65.00
2024-02-13T08:54:13.121Z,65.20
2024-02-13T08:56:43.370Z,65.30
2024-02-13T08:59:10.360Z,65.60
2024-02-13T09:01:37.483Z,65.60
2024-02-13T09:04:04.639Z,65.70
2024-02-13T09:06:33.909Z,65.60
2024-02-13T09:09:03.178Z,65.90
2024-02-13T09:11:32.474Z,66.10
2024-02-13T09:13:59.519Z,65.80
2024-02-13T09:16:26.881Z,65.50
2024-02-13T09:18:56.521Z,65.10
2024-02-13T09:21:24.367Z,64.70
2024-02-13T09:23:51.494Z,64.50
2024-02-13T09:26:18.455Z,64.30
2024-02-13T09:28:46.251Z,64.20
2024-02-13T09:31:13.524Z,64.10
2024-02-13T09:33:41.029Z,64.10
2024-02-13T09:36:09.387Z,64.10
2024-02-13T09:38:39.998Z,63.80
2024-02-13T09:41:07.391Z,63.90
2024-02-13T09:43:34.612Z,63.40
2024-02-13T09:46:03.080Z,63.40
2024-02-13T09:48:33.992Z,63.30
2024-02-13T09:51:09.694Z,63.10
2024-02-13T09:53:44.068Z,63.10
2024-02-13T09:56:13.525Z,63.00
2024-02-13T09:58:48.480Z,62.70
2024-02-13T10:01:16.260Z,62.30
2024-02-13T10:03:45.041Z,62.30
2024-02-13T10:06:12.553Z,62.60
2024-02-13T10:08:41.236Z,63.10
2024-02-13T10:11:17.543Z,62.90
2024-02-13T10:13:47.492Z,63.10
2024-02-13T10:16:32.453Z,63.50
2024-02-13T10:19:02.504Z,63.60
2024-02-13T10:21:33.020Z,63.60
2024-02-13T10:24:15.155Z,63.40
2024-02-13T10:26:43.730Z,63.30
2024-02-13T10:29:11.397Z,63.80
2024-02-13T10:31:41.786Z,63.10
2024-02-13T10:34:12.729Z,62.90
2024-02-13T10:36:44.317Z,62.80
2024-02-13T10:39:13.912Z,62.70
2024-02-13T10:41:43.204Z,62.50
2024-02-13T10:44:13.409Z,62.70
2024-02-13T10:46:42.347Z,62.60
2024-02-13T10:49:25.208Z,62.50
2024-02-13T10:51:56.826Z,62.70
2024-02-13T10:54:27.629Z,63.00
2024-02-13T10:56:56.201Z,63.10
2024-02-13T10:59:24.154Z,63.30
2024-02-13T11:01:55.305Z,63.40
2024-02-13T11:04:22.607Z,63.60
2024-02-13T11:06:50.732Z,63.40
2024-02-13T11:09:19.247Z,63.40
2024-02-13T11:11:46.769Z,63.20
2024-02-13T11:14:24.050Z,62.70
2024-02-13T11:17:02.036Z,62.00
2024-02-13T11:19:47.327Z,61.20
2024-02-13T11:22:19.828Z,60.70
2024-02-13T11:24:54.425Z,60.00
2024-02-13T11:27:29.463Z,59.70
2024-02-13T11:30:00.199Z,59.10
2024-02-13T11:32:33.353Z,58.60
2024-02-13T11:35:00.997Z,58.70
2024-02-13T11:37:31.593Z,58.40
2024-02-13T11:39:59.520Z,58.30
2024-02-13T11:42:35.318Z,58.00
2024-02-13T11:45:03.440Z,58.10
2024-02-13T11:47:30.934Z,58.10
2024-02-13T11:49:58.127Z,57.60
2024-02-13T11:52:25.112Z,57.40
2024-02-13T11:54:52.688Z,57.10
2024-02-13T11:57:27.585Z,56.30
2024-02-13T12:00:01.697Z,55.60
2024-02-13T12:02:31.346Z,55.60
2024-02-13T12:04:58.190Z,55.50
2024-02-13T12:07:25.338Z,55.30
2024-02-13T12:09:54.107Z,54.70
2024-02-13T12:12:22.431Z,54.50
2024-02-13T12:14:53.861Z,53.50
2024-02-13T12:17:22.081Z,53.30
2024-02-13T12:19:49.608Z,53.20
2024-02-13T12:22:18.356Z,53.00
2024-02-13T12:24:47.564Z,53.60
2024-02-13T12:27:18.023Z,53.80
2024-02-13T12:29:45.497Z,54.60
2024-02-13T12:32:21.404Z,55.20
2024-02-13T12:34:50.171Z,55.90
2024-02-13T12:37:21.753Z,54.50
2024-02-13T12:39:49.011Z,54.30
2024-02-13T12:42:18.629Z,54.00
2024-02-13T12:44:46.241Z,54.10
2024-02-13T12:47:14.928Z,53.40
2024-02-13T12:49:47.712Z,52.80
2024-02-13T12:52:18.798Z,53.20
2024-02-13T12:54:47.319Z,53.80
2024-02-13T12:57:15.862Z,54.10
2024-02-13T12:59:47.278Z,54.40
2024-02-13T13:02:15.614Z,54.40
2024-02-13T13:04:43.011Z,54.10
2024-02-13T13:07:10.297Z,54.60
2024-02-13T13:09:38.951Z,54.40
2024-02-13T13:12:07.655Z,55.10
2024-02-13T13:14:35.920Z,55.00
2024-02-13T13:17:03.049Z,55.10
2024-02-13T13:19:32.938Z,55.00
2024-02-13T13:22:00.222Z,55.00
2024-02-13T13:24:28.514Z,55.10
2024-02-13T13:26:55.936Z,54.70
2024-02-13T13:29:23.471Z,55.10
2024-02-13T13:31:52.402Z,55.50
2024-02-13T13:34:24.438Z,55.90
2024-02-13T13:36:53.191Z,55.80
2024-02-13T13:39:22.079Z,56.00
2024-02-13T13:41:51.513Z,56.40
2024-02-13T13:44:19.284Z,56.30
2024-02-13T13:46:48.077Z,56.30
2024-02-13T13:49:19.048Z,56.30
2024-02-13T13:51:47.035Z,56.40
2024-02-13T13:54:13.930Z,56.00
2024-02-13T13:56:41.964Z,55.80
2024-02-13T13:59:08.931Z,55.20
2024-02-13T14:01:36.457Z,54.80
2024-02-13T14:04:04.346Z,54.40
2024-02-13T14:06:31.774Z,54.10
2024-02-13T14:08:58.745Z,54.30
2024-02-13T14:11:25.745Z,54.10
2024-02-13T14:13:53.677Z,53.80
2024-02-13T14:16:20.715Z,53.70
2024-02-13T14:18:48.430Z,54.00
2024-02-13T14:21:15.623Z,54.30
2024-02-13T14:23:43.993Z,54.50
2024-02-13T14:26:10.980Z,54.50
2024-02-13T14:28:38.189Z,54.60
2024-02-13T14:31:05.412Z,54.40
2024-02-13T14:33:33.607Z,54.60
2024-02-13T14:36:00.874Z,54.60
2024-02-13T14:38:27.921Z,54.10
2024-02-13T14:40:55.290Z,54.70
2024-02-13T14:43:22.240Z,54.70
2024-02-13T14:45:51.947Z,55.00
2024-02-13T14:48:19.176Z,54.80
2024-02-13T14:50:48.575Z,54.90
2024-02-13T14:53:21.968Z,54.90
2024-02-13T14:55:49.220Z,54.90
2024-02-13T14:58:25.837Z,55.00
2024-02-13T15:00:58.360Z,55.10
2024-02-13T15:03:25.843Z,54.90
2024-02-13T15:05:54.218Z,54.80
2024-02-13T15:08:21.875Z,54.80
2024-02-13T15:10:49.462Z,55.10
2024-02-13T15:13:17.198Z,55.20
2024-02-13T15:15:50.124Z,54.80
2024-02-13T15:18:17.459Z,54.40
2024-02-13T15:20:45.161Z,54.40
2024-02-13T15:23:13.961Z,54.20
2024-02-13T15:25:41.680Z,54.20
2024-02-13T15:28:08.875Z,54.10
2024-02-13T15:30:38.796Z,53.90
2024-02-13T15:33:06.664Z,54.20
2024-02-13T15:35:42.464Z,54.30
2024-02-13T15:38:28.421Z,54.30
2024-02-13T15:41:14.176Z,54.40
2024-02-13T15:43:59.480Z,54.00
2024-02-13T15:46:45.057Z,54.20
2024-02-13T15:49:15.948Z,54.10
2024-02-13T15:51:45.230Z,54.10
2024-02-13T15:54:12.313Z,54.20
2024-02-13T15:56:40.752Z,54.20
2024-02-13T15:59:10.748Z,53.90
2024-02-13T16:01:37.644Z,53.80
2024-02-13T16:04:05.517Z,53.90
2024-02-13T16:06:37.875Z,54.20
2024-02-13T16:09:05.456Z,54.20
2024-02-13T16:11:33.327Z,54.30
2024-02-13T16:14:03.535Z,54.40
2024-02-13T16:16:30.473Z,54.40
2024-02-13T16:18:58.057Z,54.40
2024-02-13T16:21:26.134Z,54.20
2024-02-13T16:23:53.117Z,54.10
2024-02-13T16:26:21.109Z,54.10
2024-02-13T16:28:48.398Z,54.10
2024-02-13T16:31:15.272Z,54.60
2024-02-13T16:33:43.192Z,54.40
2024-02-13T16:36:10.184Z,54.40
2024-02-13T16:38:37.079Z,54.50
2024-02-13T16:41:04.361Z,54.50
2024-02-13T16:43:31.345Z,54.40
2024-02-13T16:45:58.616Z,54.40
2024-02-13T16:48:25.933Z,54.20
2024-02-13T16:50:53.108Z,54.50
2024-02-13T16:53:20.367Z,54.60
2024-02-13T16:55:49.797Z,54.80
2024-02-13T16:58:16.879Z,55.20
2024-02-13T17:00:43.951Z,55.50
2024-02-13T17:03:10.870Z,55.80
2024-02-13T17:05:40.021Z,56.00
2024-02-13T17:08:07.986Z,56.20
2024-02-13T17:10:35.112Z,56.80
2024-02-13T17:13:04.518Z,56.70
2024-02-13T17:15:31.506Z,56.70
2024-02-13T17:17:58.827Z,57.00
2024-02-13T17:20:26.013Z,57.30
2024-02-13T17:22:55.117Z,57.20
2024-02-13T17:25:22.081Z,57.40
2024-02-13T17:27:49.280Z,57.60
2024-02-13T17:30:16.741Z,57.60
2024-02-13T17:32:45.621Z,57.60
2024-02-13T17:35:12.992Z,57.70
2024-02-13T17:37:40.136Z,57.70
2024-02-13T17:40:09.569Z,57.80
2024-02-13T17:42:36.417Z,58.00
2024-02-13T17:45:06.077Z,58.10
2024-02-13T17:47:33.521Z,58.40
2024-02-13T17:50:00.737Z,58.50
2024-02-13T17:52:27.698Z,58.60
2024-02-13T17:54:54.501Z,58.60
2024-02-13T17:57:21.802Z,58.60
2024-02-13T17:59:48.906Z,58.80
2024-02-13T18:02:15.804Z,59.10
2024-02-13T18:04:42.614Z,59.30
2024-02-13T18:07:13.646Z,59.40
2024-02-13T18:09:41.567Z,59.50
2024-02-13T18:12:08.712Z,59.50
2024-02-13T18:14:38.512Z,59.50
2024-02-13T18:17:06.119Z,59.60
2024-02-13T18:19:33.324Z,59.60
2024-02-13T18:22:00.508Z,59.80
2024-02-13T18:24:27.447Z,60.60
2024-02-13T18:26:54.438Z,60.00
2024-02-13T18:29:21.357Z,60.20
2024-02-13T18:31:48.363Z,60.40
2024-02-13T18:34:16.951Z,60.60
2024-02-13T18:36:45.361Z,60.70
2024-02-13T18:39:14.284Z,60.90
2024-02-13T18:41:42.051Z,61.00
2024-02-13T18:44:09.078Z,61.20
2024-02-13T18:46:36.343Z,61.50
2024-02-13T18:49:04.325Z,61.80
2024-02-13T18:51:31.762Z,61.90
2024-02-13T18:53:58.732Z,62.20
2024-02-13T18:56:32.363Z,62.40
2024-02-13T18:59:00.339Z,62.70
2024-02-13T19:01:27.581Z,62.70
2024-02-13T19:03:55.235Z,63.00
2024-02-13T19:06:22.382Z,63.00
2024-02-13T19:08:49.361Z,63.10
2024-02-13T19:11:17.067Z,63.30
2024-02-13T19:13:45.438Z,63.60
2024-02-13T19:16:12.335Z,63.70
2024-02-13T19:18:40.232Z,63.80
2024-02-13T19:21:09.068Z,64.20
2024-02-13T19:23:36.297Z,64.50
2024-02-13T19:26:03.549Z,64.40
2024-02-13T19:28:30.478Z,64.60
2024-02-13T19:30:57.390Z,64.80
2024-02-13T19:33:25.058Z,64.90
2024-02-13T19:35:53.539Z,65.10
2024-02-13T19:38:21.096Z,65.20
2024-02-13T19:40:47.992Z,65.30
2024-02-13T19:43:14.883Z,65.40
2024-02-13T19:45:43.496Z,65.30
2024-02-13T19:48:10.807Z,65.30
2024-02-13T19:50:39.731Z,66.10
2024-02-13T19:53:08.052Z,65.40
2024-02-13T19:55:35.235Z,65.50
2024-02-13T19:58:03.287Z,65.40
2024-02-13T20:00:30.251Z,65.50
2024-02-13T20:02:57.278Z,65.50
2024-02-13T20:05:25.136Z,65.20
2024-02-13T20:07:52.228Z,65.30
2024-02-13T20:10:21.482Z,65.20
2024-02-13T20:12:49.121Z,65.30
2024-02-13T20:15:16.165Z,65.20
2024-02-13T20:17:45.063Z,65.40
2024-02-13T20:20:15.993Z,65.50
2024-02-13T20:22:48.435Z,65.50
2024-02-13T20:25:16.418Z,65.40
2024-02-13T20:27:47.175Z,65.70
2024-02-13T20:30:18.103Z,66.20
2024-02-13T20:32:46.238Z,65.60
2024-02-13T20:35:13.929Z,65.60
2024-02-13T20:37:41.639Z,65.60
2024-02-13T20:40:11.446Z,65.80
2024-02-13T20:42:46.507Z,65.60
2024-02-13T20:45:21.192Z,65.30
2024-02-13T20:47:53.050Z,65.60
2024-02-13T20:50:21.715Z,65.20
2024-02-13T20:52:48.713Z,65.10
2024-02-13T20:55:17.037Z,64.80
2024-02-13T20:57:44.658Z,65.10
2024-02-13T21:00:15.535Z,65.20
2024-02-13T21:02:43.545Z,65.10
2024-02-13T21:05:11.366Z,65.20
2024-02-13T21:07:38.443Z,65.10
2024-02-13T21:10:10.130Z,64.90
2024-02-13T21:12:37.363Z,64.90
2024-02-13T21:15:04.872Z,64.80
2024-02-13T21:17:40.812Z,65.00
2024-02-13T21:20:12.061Z,65.10
2024-02-13T21:22:57.998Z,65.20
2024-02-13T21:25:25.533Z,64.80
2024-02-13T21:27:52.520Z,64.60
2024-02-13T21:30:19.910Z,64.30
2024-02-13T21:32:48.155Z,64.40
2024-02-13T21:35:16.742Z,64.40
2024-02-13T21:37:44.292Z,64.10
2024-02-13T21:40:15.358Z,64.10
2024-02-13T21:42:42.765Z,64.30
2024-02-13T21:45:10.864Z,64.10
2024-02-13T21:47:42.800Z,64.10
2024-02-13T21:50:10.600Z,64.00
2024-02-13T21:52:38.170Z,64.00
2024-02-13T21:55:06.246Z,64.10
2024-02-13T21:57:33.352Z,64.20
2024-02-13T22:00:04.659Z,64.30
2024-02-13T22:02:32.351Z,64.50
2024-02-13T22:04:59.291Z,64.60
2024-02-13T22:07:26.422Z,64.80
2024-02-13T22:09:53.469Z,64.90
2024-02-13T22:12:20.327Z,65.10
2024-02-13T22:14:47.182Z,65.30
2024-02-13T22:17:14.171Z,65.40
2024-02-13T22:19:41.050Z,65.70
2024-02-13T22:22:07.954Z,65.90
2024-02-13T22:24:34.851Z,66.10
2024-02-13T22:27:01.816Z,66.40
2024-02-13T22:29:29.102Z,66.50
2024-02-13T22:31:55.944Z,66.60
2024-02-13T22:34:24.680Z,66.80
2024-02-13T22:36:53.635Z,66.90
2024-02-13T22:39:20.486Z,67.00
2024-02-13T22:41:47.367Z,67.00
2024-02-13T22:44:14.262Z,67.30
2024-02-13T22:46:41.956Z,67.70
2024-02-13T22:49:09.072Z,67.80
2024-02-13T22:51:36.008Z,67.80
2024-02-13T22:54:03.244Z,68.00
2024-02-13T22:56:30.513Z,68.50
2024-02-13T22:58:58.385Z,68.70
2024-02-13T23:01:25.549Z,68.80
2024-02-13T23:03:52.575Z,69.00
2024-02-13T23:06:20.418Z,68.80
2024-02-13T23:08:47.476Z,68.70
2024-02-13T23:11:14.388Z,68.80
2024-02-13T23:13:45.725Z,69.00
2024-02-13T23:16:16.259Z,68.90
2024-02-13T23:18:43.421Z,69.00
2024-02-13T23:21:10.860Z,69.10
2024-02-13T23:23:37.874Z,69.20
2024-02-13T23:26:05.869Z,69.40
2024-02-13T23:28:39.688Z,69.60
2024-02-13T23:31:18.553Z,69.70
2024-02-13T23:33:46.063Z,69.70
2024-02-13T23:36:13.468Z,69.60
2024-02-13T23:38:40.394Z,69.50
2024-02-13T23:41:07.235Z,69.70
2024-02-13T23:43:34.651Z,69.90
2024-02-13T23:46:01.736Z,70.00
2024-02-13T23:48:29.752Z,70.00
2024-02-13T23:50:57.442Z,70.00
2024-02-13T23:53:24.754Z,70.10
2024-02-13T23:55:51.684Z,70.10
2024-02-13T23:58:18.674Z,70.20
